| time (UTC) | temp F | wind direction | speed knots | gust knots | rain 1hr in | rain 24hr in | rain mn in | humidity % | barometer mb |
| 20260906095421 | 92 | 24 | 1.7 | 3.5 | 0.00 | 0.00 | 0.00 | 40 | 1021.3 |
| 20260906094521 | 91 | 0 | 0.0 | 5.2 | 0.00 | 0.00 | 0.00 | 43 | 1021.3 |
| 20260906093622 | 89 | 29 | 2.6 | 6.1 | 0.00 | 0.00 | 0.00 | 43 | 1021.4 |
| 20260906092721 | 88 | 26 | 3.5 | 5.2 | 0.00 | 0.00 | 0.00 | 45 | 1021.5 |
| 20260906091821 | 86 | 24 | 3.5 | 5.2 | 0.00 | 0.00 | 0.00 | 48 | 1021.6 |
| 20260906091132 | 84 | 24 | 1.7 | 4.3 | 0.00 | 0.00 | 0.00 | 51 | 1021.5 |
| 20260906090021 | 82 | 22 | 1.7 | 4.3 | 0.00 | 0.00 | 0.00 | 52 | 1021.6 |
| 20260906085121 | 81 | 29 | 3.5 | 4.3 | 0.00 | 0.00 | 0.00 | 57 | 1021.6 |
| 20260906084434 | 81 | 29 | 3.5 | 7.0 | 0.00 | 0.00 | 0.00 | 56 | 1021.4 |
| 20260906083531 | 81 | 27 | 3.5 | 7.0 | 0.00 | 0.00 | 0.00 | 57 | 1021.5 |
| 20260906082634 | 80 | 24 | 3.5 | 7.0 | 0.00 | 0.00 | 0.00 | 57 | 1021.5 |
| 20260906081521 | 80 | 28 | 3.5 | 7.0 | 0.00 | 0.00 | 0.00 | 58 | 1021.3 |
| 20260906080621 | 79 | 24 | 3.5 | 8.7 | 0.00 | 0.00 | 0.00 | 57 | 1021.4 |
| 20260906075721 | 79 | 26 | 5.2 | 8.7 | 0.00 | 0.00 | 0.00 | 57 | 1021.4 |
| 20260906074821 | 79 | 27 | 2.6 | 7.0 | 0.00 | 0.00 | 0.00 | 57 | 1021.3 |
| 20260906073921 | 78 | 26 | 3.5 | 7.8 | 0.00 | 0.00 | 0.00 | 60 | 1021.3 |
| 20260906073233 | 78 | 27 | 2.6 | 7.8 | 0.00 | 0.00 | 0.00 | 61 | 1021.2 |
| 20260906072335 | 78 | 28 | 4.3 | 7.8 | 0.00 | 0.00 | 0.00 | 61 | 1021.1 |
| 20260906071221 | 77 | 22 | 3.5 | 5.2 | 0.00 | 0.00 | 0.00 | 63 | 1021.1 |
| 20260906070535 | 77 | 22 | 2.6 | 3.5 | 0.00 | 0.00 | 0.00 | 65 | 1021.0 |
| 20260906065421 | 76 | 24 | 2.6 | 7.0 | 0.00 | 0.00 | 0.00 | 64 | 1020.9 |
| 20260906064521 | 76 | 26 | 4.3 | 6.1 | 0.00 | 0.00 | 0.00 | 66 | 1020.8 |
| 20260906063621 | 75 | 22 | 3.5 | 6.1 | 0.00 | 0.00 | 0.00 | 68 | 1020.6 |
| 20260906062721 | 75 | 27 | 2.6 | 4.3 | 0.00 | 0.00 | 0.00 | 70 | 1020.6 |
| 20260906061821 | 74 | 22 | 1.7 | 4.3 | 0.00 | 0.00 | 0.00 | 71 | 1020.6 |
| 20260906060921 | 74 | 35 | 1.7 | 4.3 | 0.00 | 0.00 | 0.00 | 72 | 1020.5 |
| 20260906060021 | 73 | 32 | 1.7 | 2.6 | 0.00 | 0.00 | 0.00 | 74 | 1020.4 |
| 20260906055121 | 72 | 28 | 1.7 | 3.5 | 0.00 | 0.00 | 0.00 | 74 | 1020.4 |
| 20260906054221 | 72 | 23 | 0.9 | 2.6 | 0.00 | 0.00 | 0.00 | 78 | 1020.2 |
| 20260906053322 | 72 | 25 | 0.9 | 2.6 | 0.00 | 0.00 | 0.00 | 78 | 1020.0 |
| 20260906052421 | 71 | 22 | 0.9 | 2.6 | 0.00 | 0.00 | 0.00 | 79 | 1020.0 |
| 20260906051733 | 71 | 22 | 1.7 | 2.6 | 0.00 | 0.00 | 0.00 | 79 | 1019.9 |
| 20260906050622 | 71 | 26 | 1.7 | 2.6 | 0.00 | 0.00 | 0.00 | 79 | 1019.8 |
| 20260906045721 | 71 | 22 | 0.9 | 1.7 | 0.00 | 0.00 | 0.00 | 78 | 1019.7 |
| 20260906044821 | 71 | 0 | 0.0 | 1.7 | 0.00 | 0.00 | 0.00 | 77 | 1019.7 |
| 20260906044132 | 71 | 0 | 0.0 | 1.7 | 0.00 | 0.00 | 0.00 | 77 | 1019.7 |
| 20260906043021 | 72 | 26 | 0.9 | 1.7 | 0.00 | 0.00 | 0.00 | 77 | 1019.5 |
| 20260906042121 | 72 | 27 | 1.7 | 1.7 | 0.00 | 0.00 | 0.00 | 77 | 1019.4 |
| 20260906041222 | 72 | 24 | 1.7 | 3.5 | 0.00 | 0.00 | 0.00 | 76 | 1019.3 |
| 20260906040321 | 72 | 24 | 1.7 | 3.5 | 0.00 | 0.00 | 0.00 | 78 | 1019.2 |
| 20260906035422 | 72 | 22 | 1.7 | 3.5 | 0.00 | 0.00 | 0.00 | 79 | 1019.1 |
| 20260906034521 | 72 | 22 | 1.7 | 2.6 | 0.00 | 0.00 | 0.00 | 80 | 1019.0 |
| 20260906033621 | 71 | 23 | 1.7 | 2.6 | 0.00 | 0.00 | 0.00 | 80 | 1018.9 |
| 20260906032721 | 71 | 22 | 0.9 | 1.7 | 0.00 | 0.00 | 0.00 | 81 | 1018.8 |
| 20260906031821 | 72 | 24 | 0.9 | 1.7 | 0.00 | 0.00 | 0.00 | 81 | 1018.9 |
| 20260906031131 | 72 | 24 | 0.9 | 1.7 | 0.00 | 0.00 | 0.00 | 81 | 1018.8 |
| 20260906030021 | 72 | 22 | 0.9 | 1.7 | 0.00 | 0.00 | 0.00 | 81 | 1018.8 |
| 20260906025335 | 72 | 0 | 0.0 | 1.7 | 0.00 | 0.00 | 0.00 | 82 | 1019.0 |
| 20260906024221 | 72 | 22 | 0.9 | 1.7 | 0.00 | 0.00 | 0.00 | 82 | 1019.0 |
| 20260906023535 | 72 | 22 | 0.9 | 1.7 | 0.00 | 0.00 | 0.00 | 83 | 1019.0 |
| 20260906022421 | 72 | 24 | 0.9 | 1.7 | 0.00 | 0.00 | 0.00 | 85 | 1019.0 |
| 20260906021522 | 72 | 22 | 0.9 | 1.7 | 0.00 | 0.00 | 0.00 | 86 | 1018.8 |
| 20260906020621 | 72 | 22 | 0.9 | 1.7 | 0.00 | 0.00 | 0.00 | 86 | 1018.7 |
| 20260906015721 | 73 | 0 | 0.0 | 1.7 | 0.00 | 0.00 | 0.00 | 86 | 1018.7 |
| 20260906015032 | 73 | 0 | 0.0 | 1.7 | 0.00 | 0.00 | 0.00 | 88 | 1018.7 |
| 20260906013921 | 73 | 0 | 0.0 | 1.7 | 0.00 | 0.00 | 0.00 | 89 | 1018.7 |
| 20260906013021 | 73 | 22 | 0.9 | 1.7 | 0.00 | 0.00 | 0.00 | 91 | 1018.7 |
| 20260906012121 | 73 | 22 | 0.9 | 1.7 | 0.00 | 0.00 | 0.00 | 92 | 1018.5 |
| 20260906011221 | 74 | 0 | 0.0 | 1.7 | 0.00 | 0.00 | 0.00 | 94 | 1018.5 |
| 20260906010321 | 74 | 24 | 0.9 | 1.7 | 0.00 | 0.00 | 0.00 | 95 | 1018.5 |
| 20260906005422 | 74 | 23 | 0.9 | 2.6 | 0.00 | 0.00 | 0.00 | 96 | 1018.4 |
| 20260906004521 | 74 | 22 | 1.7 | 2.6 | 0.00 | 0.00 | 0.00 | 96 | 1018.6 |
| 20260906003621 | 74 | 22 | 0.9 | 1.7 | 0.00 | 0.00 | 0.00 | 96 | 1018.6 |
| 20260906002721 | 75 | 0 | 0.0 | 1.7 | 0.00 | 0.00 | 0.00 | 96 | 1018.6 |
| 20260906001821 | 75 | 22 | 0.9 | 1.7 | 0.00 | 0.00 | 0.00 | 97 | 1018.8 |
| 20260906000923 | 75 | 0 | 0.0 | 1.7 | 0.00 | 0.00 | 0.00 | 98 | 1018.7 |
| 20260906000021 | 75 | 0 | 0.0 | 0.9 | 0.00 | 0.00 | 0.00 | 99 | 1018.6 |
| 20260905235122 | 76 | 0 | 0.0 | 1.7 | 0.00 | 0.00 | 0.00 | 99 | 1018.7 |
| 20260905234221 | 76 | 0 | 0.0 | 0.9 | 0.00 | 0.00 | 0.00 | 99 | 1018.5 |
| 20260905233321 | 75 | 0 | 0.0 | 1.7 | 0.00 | 0.00 | 0.00 | 99 | 1018.5 |
| 20260905232421 | 75 | 22 | 0.9 | 1.7 | 0.00 | 0.00 | 0.00 | 99 | 1018.5 |
| 20260905231521 | 75 | 22 | 0.9 | 1.7 | 0.00 | 0.00 | 0.00 | 99 | 1018.4 |
| 20260905230622 | 75 | 22 | 0.9 | 1.7 | 0.00 | 0.00 | 0.00 | 99 | 1018.2 |
| 20260905225722 | 75 | 22 | 0.9 | 1.7 | 0.00 | 0.00 | 0.00 | 98 | 1018.2 |
| 20260905224821 | 75 | 0 | 0.0 | 0.9 | 0.00 | 0.00 | 0.00 | 97 | 1018.1 |
| 20260905223922 | 75 | 0 | 0.0 | 1.7 | 0.00 | 0.00 | 0.00 | 97 | 1018.0 |
| 20260905223233 | 75 | 22 | 0.9 | 1.7 | 0.00 | 0.00 | 0.00 | 96 | 1018.0 |
| 20260905222121 | 76 | 22 | 0.9 | 1.7 | 0.00 | 0.00 | 0.00 | 96 | 1018.0 |
| 20260905221221 | 76 | 0 | 0.0 | 0.9 | 0.00 | 0.00 | 0.00 | 96 | 1017.8 |
| 20260905220321 | 76 | 0 | 0.0 | 0.9 | 0.00 | 0.00 | 0.00 | 96 | 1017.8 |
| 20260905215421 | 76 | 0 | 0.0 | 0.9 | 0.00 | 0.00 | 0.00 | 95 | 1017.8 |
| 20260905214521 | 76 | 0 | 0.0 | 0.0 | 0.00 | 0.00 | 0.00 | 95 | 1017.7 |
| 20260905213621 | 76 | 0 | 0.0 | 0.0 | 0.00 | 0.00 | 0.00 | 94 | 1017.7 |
| 20260905212721 | 76 | 0 | 0.0 | 0.9 | 0.00 | 0.00 | 0.00 | 93 | 1017.5 |
| 20260905211822 | 76 | 0 | 0.0 | 0.9 | 0.00 | 0.00 | 0.00 | 92 | 1017.4 |
| 20260905211135 | 76 | 0 | 0.0 | 0.9 | 0.00 | 0.00 | 0.00 | 92 | 1017.3 |
| 20260905210021 | 76 | 0 | 0.0 | 0.9 | 0.00 | 0.00 | 0.00 | 91 | 1017.4 |
| 20260905205122 | 77 | 0 | 0.0 | 1.7 | 0.00 | 0.00 | 0.00 | 91 | 1017.4 |
| 20260905204431 | 77 | 0 | 0.0 | 1.7 | 0.00 | 0.00 | 0.00 | 90 | 1017.2 |
| 20260905203321 | 77 | 0 | 0.0 | 1.7 | 0.00 | 0.00 | 0.00 | 90 | 1017.3 |
| 20260905202421 | 77 | 0 | 0.0 | 0.9 | 0.00 | 0.00 | 0.00 | 89 | 1017.2 |
| 20260905201521 | 77 | 0 | 0.0 | 0.9 | 0.00 | 0.00 | 0.00 | 87 | 1017.3 |
| 20260905200623 | 78 | 0 | 0.0 | 0.9 | 0.00 | 0.00 | 0.00 | 87 | 1017.2 |
| 20260905195721 | 78 | 0 | 0.0 | 0.9 | 0.00 | 0.00 | 0.00 | 87 | 1017.1 |
| 20260905194821 | 78 | 0 | 0.0 | 1.7 | 0.00 | 0.00 | 0.00 | 86 | 1017.0 |
| 20260905193921 | 78 | 145 | 0.9 | 1.7 | 0.00 | 0.00 | 0.00 | 86 | 1016.8 |
| 20260905193021 | 79 | 0 | 0.0 | 0.9 | 0.00 | 0.00 | 0.00 | 83 | 1016.6 |
| 20260905192121 | 79 | 0 | 0.0 | 0.9 | 0.00 | 0.00 | 0.00 | 82 | 1016.5 |
| 20260905191435 | 79 | 0 | 0.0 | 0.9 | 0.00 | 0.00 | 0.00 | 82 | 1016.5 |
| 20260905190321 | 80 | 0 | 0.0 | 1.7 | 0.00 | 0.00 | 0.00 | 81 | 1016.3 |
| 20260905185421 | 80 | 0 | 0.0 | 0.9 | 0.00 | 0.00 | 0.00 | 81 | 1016.2 |
| 20260905184521 | 80 | 0 | 0.0 | 1.7 | 0.00 | 0.00 | 0.00 | 80 | 1016.2 |
| 20260905183621 | 80 | 22 | 0.9 | 1.7 | 0.00 | 0.00 | 0.00 | 80 | 1015.9 |
| 20260905182721 | 80 | 0 | 0.0 | 0.9 | 0.00 | 0.00 | 0.00 | 79 | 1015.7 |
| 20260905181821 | 80 | 0 | 0.0 | 0.0 | 0.00 | 0.00 | 0.00 | 77 | 1015.5 |
| 20260905181131 | 81 | 0 | 0.0 | 0.0 | 0.00 | 0.00 | 0.00 | 76 | 1015.4 |
| 20260905180021 | 82 | 0 | 0.0 | 0.9 | 0.00 | 0.00 | 0.00 | 72 | 1015.4 |
| 20260905175122 | 82 | 0 | 0.0 | 0.9 | 0.00 | 0.00 | 0.00 | 71 | 1015.3 |
| 20260905174221 | 83 | 0 | 0.0 | 0.9 | 0.00 | 0.00 | 0.00 | 71 | 1015.1 |
| 20260905173322 | 84 | 0 | 0.0 | 0.9 | 0.00 | 0.00 | 0.00 | 69 | 1015.1 |
| 20260905172421 | 85 | 0 | 0.0 | 0.0 | 0.00 | 0.00 | 0.00 | 67 | 1014.9 |
| 20260905171521 | 87 | 0 | 0.0 | 0.9 | 0.00 | 0.00 | 0.00 | 65 | 1014.8 |
| 20260905170621 | 88 | 0 | 0.0 | 0.9 | 0.00 | 0.00 | 0.00 | 63 | 1014.8 |
| 20260905165722 | 89 | 0 | 0.0 | 0.9 | 0.00 | 0.00 | 0.00 | 61 | 1014.8 |
| 20260905164821 | 92 | 0 | 0.0 | 0.9 | 0.00 | 0.00 | 0.00 | 53 | 1014.7 |
| 20260905163921 | 94 | 0 | 0.0 | 1.7 | 0.00 | 0.00 | 0.00 | 51 | 1014.5 |
| 20260905163021 | 95 | 0 | 0.0 | 1.7 | 0.00 | 0.00 | 0.00 | 45 | 1014.5 |
| 20260905162121 | 96 | 0 | 0.0 | 1.7 | 0.00 | 0.00 | 0.00 | 42 | 1014.4 |
| 20260905161432 | 96 | 22 | 0.9 | 2.6 | 0.00 | 0.00 | 0.00 | 39 | 1014.5 |
| 20260905160322 | 101 | 0 | 0.0 | 0.9 | 0.00 | 0.00 | 0.00 | 33 | 1014.4 |
| 20260905155421 | 101 | 0 | 0.0 | 3.5 | 0.00 | 0.00 | 0.00 | 34 | 1014.4 |
| 20260905154522 | 102 | 0 | 0.0 | 1.7 | 0.00 | 0.00 | 0.00 | 32 | 1014.3 |
| 20260905153621 | 103 | 0 | 0.0 | 1.7 | 0.00 | 0.00 | 0.00 | 32 | 1014.2 |
| 20260905152721 | 103 | 0 | 0.0 | 1.7 | 0.00 | 0.00 | 0.00 | 31 | 1014.2 |
| 20260905151821 | 104 | 0 | 0.0 | 1.7 | 0.00 | 0.00 | 0.00 | 30 | 1014.2 |
| 20260905151133 | 103 | 0 | 0.0 | 1.7 | 0.00 | 0.00 | 0.00 | 31 | 1014.2 |
| 20260905150021 | 102 | 0 | 0.0 | 2.6 | 0.00 | 0.00 | 0.00 | 30 | 1014.2 |
| 20260905145333 | 104 | 147 | 0.9 | 2.6 | 0.00 | 0.00 | 0.00 | 31 | 1014.2 |
| 20260905144221 | 103 | 0 | 0.0 | 3.5 | 0.00 | 0.00 | 0.00 | 30 | 1014.2 |
| 20260905143321 | 103 | 0 | 0.0 | 3.5 | 0.00 | 0.00 | 0.00 | 31 | 1014.3 |
| 20260905142421 | 103 | 79 | 2.6 | 3.5 | 0.00 | 0.00 | 0.00 | 30 | 1014.3 |
| 20260905141521 | 103 | 39 | 1.7 | 1.7 | 0.00 | 0.00 | 0.00 | 30 | 1014.3 |
| 20260905140621 | 101 | 143 | 0.9 | 1.7 | 0.00 | 0.00 | 0.00 | 33 | 1014.4 |
| 20260905135721 | 100 | 0 | 0.0 | 5.2 | 0.00 | 0.00 | 0.00 | 34 | 1014.4 |
| 20260905134822 | 99 | 0 | 0.0 | 3.5 | 0.00 | 0.00 | 0.00 | 38 | 1014.5 |
| 20260905133921 | 100 | 0 | 0.0 | 2.6 | 0.00 | 0.00 | 0.00 | 33 | 1014.6 |
| 20260905133021 | 99 | 37 | 1.7 | 2.6 | 0.00 | 0.00 | 0.00 | 34 | 1014.8 |
| 20260905132121 | 101 | 42 | 1.7 | 3.5 | 0.00 | 0.00 | 0.00 | 31 | 1014.7 |
| 20260905131221 | 101 | 0 | 0.0 | 2.6 | 0.00 | 0.00 | 0.00 | 36 | 1014.8 |
| 20260905130321 | 100 | 43 | 0.9 | 2.6 | 0.00 | 0.00 | 0.00 | 35 | 1014.8 |
| 20260905125422 | 97 | 33 | 1.7 | 3.5 | 0.00 | 0.00 | 0.00 | 39 | 1015.0 |
| 20260905124521 | 97 | 29 | 1.7 | 5.2 | 0.00 | 0.00 | 0.00 | 38 | 1015.1 |
| 20260905123621 | 98 | 0 | 0.0 | 3.5 | 0.00 | 0.00 | 0.00 | 40 | 1015.3 |
| 20260905122721 | 97 | 26 | 0.9 | 3.5 | 0.00 | 0.00 | 0.00 | 40 | 1015.2 |
| 20260905121821 | 95 | 30 | 0.9 | 7.0 | 0.00 | 0.00 | 0.00 | 41 | 1015.4 |
| 20260905120921 | 96 | 41 | 1.7 | 3.5 | 0.00 | 0.00 | 0.00 | 38 | 1015.5 |
| 20260905120021 | 96 | 49 | 1.7 | 7.0 | 0.00 | 0.00 | 0.00 | 38 | 1015.4 |
| 20260905115121 | 97 | 55 | 1.7 | 3.5 | 0.00 | 0.00 | 0.00 | 40 | 1015.6 |
| 20260905114221 | 97 | 58 | 2.6 | 5.2 | 0.00 | 0.00 | 0.00 | 38 | 1015.6 |
| 20260905113535 | 97 | 31 | 1.7 | 5.2 | 0.00 | 0.00 | 0.00 | 37 | 1015.7 |
| 20260905112421 | 95 | 38 | 0.9 | 3.5 | 0.00 | 0.00 | 0.00 | 39 | 1015.7 |
| 20260905111521 | 97 | 102 | 0.9 | 5.2 | 0.00 | 0.00 | 0.00 | 41 | 1015.6 |
| 20260905110622 | 97 | 49 | 2.6 | 3.5 | 0.00 | 0.00 | 0.00 | 40 | 1015.7 |
| 20260905105721 | 96 | 0 | 0.0 | 2.6 | 0.00 | 0.00 | 0.00 | 43 | 1015.7 |
| 20260905104821 | 95 | 0 | 0.0 | 2.6 | 0.00 | 0.00 | 0.00 | 44 | 1015.9 |
| 20260905104134 | 94 | 28 | 0.9 | 6.1 | 0.00 | 0.00 | 0.00 | 43 | 1015.9 |
| 20260905103022 | 93 | 32 | 0.9 | 1.7 | 0.00 | 0.00 | 0.00 | 50 | 1015.8 |
| 20260905102121 | 90 | 0 | 0.0 | 2.6 | 0.00 | 0.00 | 0.00 | 52 | 1015.7 |
| 20260905101221 | 89 | 0 | 0.0 | 1.7 | 0.00 | 0.00 | 0.00 | 60 | 1015.7 |
| 20260905100533 | 88 | 0 | 0.0 | 1.7 | 0.00 | 0.00 | 0.00 | 58 | 1015.9 |